עמוד ראשי
METAR-TAF:

METAR-TAF

שדות תעופה :

Yakutat, אלסקה, ארצות הברית

קו רוחב: 59-31N, קו אורך: 139-40W, גובה: 11מטר

תצפית מזג אוויר נוכחית

הדו"ח נערך לפני 1 שעות ו 19דקות, בשעה 10:53 UTC
רוח רגועה
טמפרטורת 12 צלסיוס
לחות 82%
לחץ 1020 hPa
ראות: 16.1קילומטר
עננים פזורים בגובה 1300רגל
מעונן בגובה 2300רגל

METAR: PAYA 151053Z AUTO 00000KT 10SM SCT013 OVC023 12/09 A3011 RMK AO2 SLP196 T01170094 TSNO $

זמן: 04:12 (12:12 UTC)

תחזית

הדו"ח נערך לפני 47דקות, בשעה 11:25 UTC
תחזית בתוקף מ 15 ב 12 UTC עד 16 ב 12 UTC
רוח 4קשר עם כיוונים משתנים
ראות: 10קילומטר
עננים פזורים בגובה 1500רגל
מעונן בגובה 2500רגל
מ 15 ב 1600UTC
רוח 7קשר מכיוון מערב
ראות: 10קילומטר
עננים פזורים בגובה 2500רגל
עננים פזורים בגובה 15000רגל
מ 16 ב 0600UTC
רוח 3קשר עם כיוונים משתנים
ראות: 10קילומטר
עננים פזורים בגובה 15000רגל

TAF: PAYA 151125Z 1512/1612 VRB04KT P6SM SCT015 OVC025 FM151600 26007KT P6SM SCT025 SCT150 FM160600 VRB03KT P6SM SCT150 AMD LTD TO CLD VIS AND WIND

תצפיות ותחזיות מזג אוויר לגבי יותר מ- 4,000 שדות תעופה ברחבי העולם. דוחות METAR ו- TAF.

התחנות הזמינות מסומנות בנקודות צהובות ואדומות על גבי המפה.

העבר את העכבר לנקודה הצבעונית על מנת לראות את שם התחנה.

לאחר מכן, לחץ כדי לראות את תוכן ואת תחזיות מזג האוויר.

כדי לשנות את המפה: לחץ על הכפתורים הירוקים עם הפלוס השחור כדי להתקרב; על הכפתור הירוק עם המקף כדי להתרחק; או בחיצים הירוקים למפות סמוכות.


METAR-TAF: